sensor_id;sensor_type;location;lat;lon;timestamp;P1;durP1;ratioP1;P2;durP2;ratioP2
46365;SDS011;32073;49.166;8.076;2022-08-21T00:03:57;3.35;;;1.08;;
46365;SDS011;32073;49.166;8.076;2022-08-21T00:07:58;2.70;;;1.30;;
46365;SDS011;32073;49.166;8.076;2022-08-21T00:11:58;3.45;;;1.50;;
46365;SDS011;32073;49.166;8.076;2022-08-21T00:15:59;2.40;;;1.35;;
46365;SDS011;32073;49.166;8.076;2022-08-21T00:20:02;2.95;;;1.20;;
46365;SDS011;32073;49.166;8.076;2022-08-21T00:24:05;2.75;;;1.30;;
46365;SDS011;32073;49.166;8.076;2022-08-21T00:28:06;1.98;;;1.17;;
46365;SDS011;32073;49.166;8.076;2022-08-21T00:32:07;2.75;;;1.30;;
46365;SDS011;32073;49.166;8.076;2022-08-21T00:36:08;3.90;;;1.50;;
46365;SDS011;32073;49.166;8.076;2022-08-21T00:40:12;3.92;;;1.65;;
46365;SDS011;32073;49.166;8.076;2022-08-21T00:44:21;3.53;;;1.65;;
46365;SDS011;32073;49.166;8.076;2022-08-21T00:48:22;4.68;;;1.70;;
46365;SDS011;32073;49.166;8.076;2022-08-21T00:52:25;3.22;;;1.73;;
46365;SDS011;32073;49.166;8.076;2022-08-21T00:56:30;3.40;;;1.25;;
46365;SDS011;32073;49.166;8.076;2022-08-21T01:00:33;2.53;;;1.20;;
46365;SDS011;32073;49.166;8.076;2022-08-21T01:04:38;3.72;;;1.58;;
46365;SDS011;32073;49.166;8.076;2022-08-21T01:08:39;2.88;;;1.33;;
46365;SDS011;32073;49.166;8.076;2022-08-21T01:12:40;3.00;;;1.42;;
46365;SDS011;32073;49.166;8.076;2022-08-21T01:16:42;6.88;;;1.73;;
46365;SDS011;32073;49.166;8.076;2022-08-21T01:21:06;3.80;;;1.48;;
46365;SDS011;32073;49.166;8.076;2022-08-21T01:25:07;3.08;;;1.73;;
46365;SDS011;32073;49.166;8.076;2022-08-21T01:33:26;3.60;;;1.65;;
46365;SDS011;32073;49.166;8.076;2022-08-21T01:37:27;3.90;;;2.20;;
46365;SDS011;32073;49.166;8.076;2022-08-21T01:41:28;2.72;;;1.60;;
46365;SDS011;32073;49.166;8.076;2022-08-21T01:45:29;3.10;;;1.70;;
46365;SDS011;32073;49.166;8.076;2022-08-21T01:49:29;4.95;;;1.88;;
46365;SDS011;32073;49.166;8.076;2022-08-21T01:53:30;3.17;;;1.30;;
46365;SDS011;32073;49.166;8.076;2022-08-21T01:57:33;4.05;;;1.45;;
46365;SDS011;32073;49.166;8.076;2022-08-21T02:01:35;5.35;;;1.83;;
46365;SDS011;32073;49.166;8.076;2022-08-21T02:05:36;4.25;;;1.50;;
46365;SDS011;32073;49.166;8.076;2022-08-21T02:09:37;3.30;;;1.63;;
46365;SDS011;32073;49.166;8.076;2022-08-21T02:13:38;2.88;;;1.63;;
46365;SDS011;32073;49.166;8.076;2022-08-21T02:17:46;4.22;;;1.58;;
46365;SDS011;32073;49.166;8.076;2022-08-21T02:21:53;5.53;;;1.48;;
46365;SDS011;32073;49.166;8.076;2022-08-21T02:25:56;3.88;;;2.08;;
46365;SDS011;32073;49.166;8.076;2022-08-21T02:29:58;3.08;;;1.85;;
46365;SDS011;32073;49.166;8.076;2022-08-21T02:33:59;4.82;;;1.52;;
46365;SDS011;32073;49.166;8.076;2022-08-21T02:38:01;3.60;;;1.60;;
46365;SDS011;32073;49.166;8.076;2022-08-21T02:42:06;3.10;;;1.50;;
46365;SDS011;32073;49.166;8.076;2022-08-21T02:46:07;4.00;;;1.60;;
46365;SDS011;32073;49.166;8.076;2022-08-21T02:50:11;2.60;;;1.67;;
46365;SDS011;32073;49.166;8.076;2022-08-21T02:54:12;2.60;;;1.58;;
46365;SDS011;32073;49.166;8.076;2022-08-21T02:58:14;2.50;;;1.15;;
46365;SDS011;32073;49.166;8.076;2022-08-21T03:02:17;3.13;;;1.40;;
46365;SDS011;32073;49.166;8.076;2022-08-21T03:06:19;3.03;;;1.52;;
46365;SDS011;32073;49.166;8.076;2022-08-21T03:10:22;2.78;;;1.40;;
46365;SDS011;32073;49.166;8.076;2022-08-21T03:14:22;2.78;;;1.50;;
46365;SDS011;32073;49.166;8.076;2022-08-21T03:18:23;3.72;;;1.50;;
46365;SDS011;32073;49.166;8.076;2022-08-21T03:22:24;3.65;;;1.73;;
46365;SDS011;32073;49.166;8.076;2022-08-21T03:26:26;2.50;;;1.58;;
46365;SDS011;32073;49.166;8.076;2022-08-21T03:30:27;2.80;;;1.75;;
46365;SDS011;32073;49.166;8.076;2022-08-21T03:34:28;2.90;;;1.70;;
46365;SDS011;32073;49.166;8.076;2022-08-21T03:38:29;2.17;;;1.48;;
46365;SDS011;32073;49.166;8.076;2022-08-21T03:42:32;3.85;;;1.48;;
46365;SDS011;32073;49.166;8.076;2022-08-21T03:46:33;4.72;;;1.50;;
46365;SDS011;32073;49.166;8.076;2022-08-21T03:50:34;3.67;;;1.73;;
46365;SDS011;32073;49.166;8.076;2022-08-21T03:54:40;4.57;;;1.60;;
46365;SDS011;32073;49.166;8.076;2022-08-21T03:58:41;2.67;;;1.73;;
46365;SDS011;32073;49.166;8.076;2022-08-21T04:02:42;2.58;;;1.80;;
46365;SDS011;32073;49.166;8.076;2022-08-21T04:06:43;2.47;;;1.30;;
46365;SDS011;32073;49.166;8.076;2022-08-21T04:10:45;2.50;;;1.45;;
46365;SDS011;32073;49.166;8.076;2022-08-21T04:14:49;1.50;;;1.30;;
46365;SDS011;32073;49.166;8.076;2022-08-21T04:18:51;3.20;;;1.50;;
46365;SDS011;32073;49.166;8.076;2022-08-21T04:22:52;3.03;;;1.63;;
46365;SDS011;32073;49.166;8.076;2022-08-21T04:26:52;1.85;;;1.50;;
46365;SDS011;32073;49.166;8.076;2022-08-21T04:30:53;3.33;;;1.73;;
46365;SDS011;32073;49.166;8.076;2022-08-21T04:34:58;2.35;;;1.63;;
46365;SDS011;32073;49.166;8.076;2022-08-21T04:39:01;3.13;;;1.63;;
46365;SDS011;32073;49.166;8.076;2022-08-21T04:43:04;2.97;;;1.95;;
46365;SDS011;32073;49.166;8.076;2022-08-21T04:47:08;5.68;;;1.65;;
46365;SDS011;32073;49.166;8.076;2022-08-21T04:51:10;3.47;;;1.40;;
46365;SDS011;32073;49.166;8.076;2022-08-21T04:55:16;2.00;;;1.33;;
46365;SDS011;32073;49.166;8.076;2022-08-21T04:59:19;3.03;;;1.27;;
46365;SDS011;32073;49.166;8.076;2022-08-21T05:03:23;3.47;;;1.45;;
46365;SDS011;32073;49.166;8.076;2022-08-21T05:07:25;2.22;;;1.48;;
46365;SDS011;32073;49.166;8.076;2022-08-21T05:11:29;2.97;;;1.48;;
46365;SDS011;32073;49.166;8.076;2022-08-21T05:15:31;4.45;;;1.58;;
46365;SDS011;32073;49.166;8.076;2022-08-21T05:19:32;3.10;;;1.35;;
46365;SDS011;32073;49.166;8.076;2022-08-21T05:23:32;2.80;;;1.58;;
46365;SDS011;32073;49.166;8.076;2022-08-21T05:27:33;3.42;;;1.40;;
46365;SDS011;32073;49.166;8.076;2022-08-21T05:31:34;3.25;;;1.35;;
46365;SDS011;32073;49.166;8.076;2022-08-21T05:35:35;4.28;;;1.58;;
46365;SDS011;32073;49.166;8.076;2022-08-21T05:39:37;4.25;;;1.55;;
46365;SDS011;32073;49.166;8.076;2022-08-21T05:43:39;2.88;;;1.38;;
46365;SDS011;32073;49.166;8.076;2022-08-21T05:47:39;2.95;;;1.10;;
46365;SDS011;32073;49.166;8.076;2022-08-21T05:51:41;3.72;;;1.27;;
46365;SDS011;32073;49.166;8.076;2022-08-21T05:55:43;2.53;;;1.33;;
46365;SDS011;32073;49.166;8.076;2022-08-21T05:59:45;4.25;;;1.40;;
46365;SDS011;32073;49.166;8.076;2022-08-21T06:03:45;1.40;;;1.00;;
46365;SDS011;32073;49.166;8.076;2022-08-21T06:07:46;3.08;;;1.55;;
46365;SDS011;32073;49.166;8.076;2022-08-21T06:11:47;2.85;;;1.30;;
46365;SDS011;32073;49.166;8.076;2022-08-21T06:15:47;3.55;;;1.30;;
46365;SDS011;32073;49.166;8.076;2022-08-21T06:19:50;3.75;;;1.20;;
46365;SDS011;32073;49.166;8.076;2022-08-21T06:23:52;3.13;;;1.45;;
46365;SDS011;32073;49.166;8.076;2022-08-21T06:27:59;3.38;;;1.40;;
46365;SDS011;32073;49.166;8.076;2022-08-21T06:32:06;2.65;;;1.33;;
46365;SDS011;32073;49.166;8.076;2022-08-21T06:36:10;2.47;;;1.40;;
46365;SDS011;32073;49.166;8.076;2022-08-21T06:40:11;2.35;;;1.40;;
46365;SDS011;32073;49.166;8.076;2022-08-21T06:44:12;3.22;;;1.25;;
46365;SDS011;32073;49.166;8.076;2022-08-21T06:48:17;1.80;;;1.08;;
46365;SDS011;32073;49.166;8.076;2022-08-21T06:52:17;2.83;;;1.52;;
46365;SDS011;32073;49.166;8.076;2022-08-21T06:56:18;4.43;;;1.45;;
46365;SDS011;32073;49.166;8.076;2022-08-21T07:00:19;4.25;;;1.50;;
46365;SDS011;32073;49.166;8.076;2022-08-21T07:04:20;3.08;;;1.60;;
46365;SDS011;32073;49.166;8.076;2022-08-21T07:08:21;2.83;;;1.45;;
46365;SDS011;32073;49.166;8.076;2022-08-21T07:12:22;8.52;;;1.85;;
46365;SDS011;32073;49.166;8.076;2022-08-21T07:16:23;4.18;;;1.80;;
46365;SDS011;32073;49.166;8.076;2022-08-21T07:20:24;2.47;;;1.25;;
46365;SDS011;32073;49.166;8.076;2022-08-21T07:24:27;2.15;;;1.77;;
46365;SDS011;32073;49.166;8.076;2022-08-21T07:28:29;2.53;;;1.63;;
46365;SDS011;32073;49.166;8.076;2022-08-21T07:32:30;3.50;;;1.75;;
46365;SDS011;32073;49.166;8.076;2022-08-21T07:36:31;2.72;;;1.23;;
46365;SDS011;32073;49.166;8.076;2022-08-21T07:40:32;3.95;;;1.55;;
46365;SDS011;32073;49.166;8.076;2022-08-21T07:44:32;3.45;;;1.75;;
46365;SDS011;32073;49.166;8.076;2022-08-21T07:48:34;2.97;;;1.50;;
46365;SDS011;32073;49.166;8.076;2022-08-21T07:52:35;3.83;;;1.23;;
46365;SDS011;32073;49.166;8.076;2022-08-21T07:56:36;1.90;;;1.00;;
46365;SDS011;32073;49.166;8.076;2022-08-21T08:00:37;3.03;;;1.20;;
46365;SDS011;32073;49.166;8.076;2022-08-21T08:04:39;4.40;;;2.00;;
46365;SDS011;32073;49.166;8.076;2022-08-21T08:08:40;3.13;;;1.45;;
46365;SDS011;32073;49.166;8.076;2022-08-21T08:12:41;5.45;;;1.77;;
46365;SDS011;32073;49.166;8.076;2022-08-21T08:16:43;4.63;;;1.70;;
46365;SDS011;32073;49.166;8.076;2022-08-21T08:20:44;2.85;;;1.38;;
46365;SDS011;32073;49.166;8.076;2022-08-21T08:24:45;2.33;;;1.00;;
46365;SDS011;32073;49.166;8.076;2022-08-21T08:28:48;4.15;;;1.45;;
46365;SDS011;32073;49.166;8.076;2022-08-21T08:32:50;6.35;;;1.90;;
46365;SDS011;32073;49.166;8.076;2022-08-21T08:36:51;3.13;;;1.50;;
46365;SDS011;32073;49.166;8.076;2022-08-21T08:41:05;2.20;;;1.20;;
46365;SDS011;32073;49.166;8.076;2022-08-21T08:45:18;6.18;;;1.60;;
46365;SDS011;32073;49.166;8.076;2022-08-21T08:53:47;5.10;;;1.40;;
46365;SDS011;32073;49.166;8.076;2022-08-21T08:57:53;4.00;;;1.60;;
46365;SDS011;32073;49.166;8.076;2022-08-21T09:01:55;4.30;;;1.55;;
46365;SDS011;32073;49.166;8.076;2022-08-21T09:05:59;5.35;;;1.80;;
46365;SDS011;32073;49.166;8.076;2022-08-21T09:10:20;3.88;;;1.70;;
46365;SDS011;32073;49.166;8.076;2022-08-21T09:28:33;3.67;;;1.67;;
46365;SDS011;32073;49.166;8.076;2022-08-21T09:32:36;3.05;;;1.50;;
46365;SDS011;32073;49.166;8.076;2022-08-21T09:36:39;3.22;;;1.42;;
46365;SDS011;32073;49.166;8.076;2022-08-21T09:40:47;4.60;;;2.15;;
46365;SDS011;32073;49.166;8.076;2022-08-21T09:45:10;4.38;;;1.60;;
46365;SDS011;32073;49.166;8.076;2022-08-21T09:49:25;3.53;;;1.63;;
46365;SDS011;32073;49.166;8.076;2022-08-21T09:53:32;3.28;;;1.25;;
46365;SDS011;32073;49.166;8.076;2022-08-21T09:57:34;3.33;;;1.30;;
46365;SDS011;32073;49.166;8.076;2022-08-21T10:01:42;4.38;;;1.55;;
46365;SDS011;32073;49.166;8.076;2022-08-21T10:05:50;3.15;;;1.42;;
46365;SDS011;32073;49.166;8.076;2022-08-21T10:28:00;3.92;;;1.67;;
46365;SDS011;32073;49.166;8.076;2022-08-21T10:37:17;1.85;;;1.15;;
46365;SDS011;32073;49.166;8.076;2022-08-21T10:46:43;4.22;;;1.50;;
46365;SDS011;32073;49.166;8.076;2022-08-21T10:51:07;3.38;;;1.42;;
46365;SDS011;32073;49.166;8.076;2022-08-21T10:56:12;3.60;;;1.65;;
46365;SDS011;32073;49.166;8.076;2022-08-21T11:00:18;5.63;;;1.67;;
46365;SDS011;32073;49.166;8.076;2022-08-21T11:08:41;2.08;;;1.10;;
46365;SDS011;32073;49.166;8.076;2022-08-21T11:12:55;1.63;;;1.00;;
46365;SDS011;32073;49.166;8.076;2022-08-21T11:17:10;3.78;;;1.33;;
46365;SDS011;32073;49.166;8.076;2022-08-21T11:25:34;3.35;;;1.30;;
46365;SDS011;32073;49.166;8.076;2022-08-21T11:29:38;3.65;;;1.58;;
46365;SDS011;32073;49.166;8.076;2022-08-21T11:33:59;3.20;;;1.63;;
46365;SDS011;32073;49.166;8.076;2022-08-21T11:42:50;2.70;;;1.20;;
46365;SDS011;32073;49.166;8.076;2022-08-21T11:51:41;3.13;;;1.30;;
46365;SDS011;32073;49.166;8.076;2022-08-21T11:56:05;2.13;;;1.13;;
46365;SDS011;32073;49.166;8.076;2022-08-21T12:00:23;3.00;;;1.30;;
46365;SDS011;32073;49.166;8.076;2022-08-21T12:04:44;1.85;;;0.93;;
46365;SDS011;32073;49.166;8.076;2022-08-21T12:08:56;2.58;;;1.30;;
46365;SDS011;32073;49.166;8.076;2022-08-21T12:13:08;3.40;;;1.20;;
46365;SDS011;32073;49.166;8.076;2022-08-21T12:17:17;1.80;;;1.20;;
46365;SDS011;32073;49.166;8.076;2022-08-21T12:21:26;2.85;;;1.42;;
46365;SDS011;32073;49.166;8.076;2022-08-21T12:25:35;2.22;;;1.02;;
46365;SDS011;32073;49.166;8.076;2022-08-21T12:29:46;5.35;;;1.40;;
46365;SDS011;32073;49.166;8.076;2022-08-21T12:33:52;2.72;;;1.35;;
46365;SDS011;32073;49.166;8.076;2022-08-21T12:38:03;2.60;;;1.30;;
46365;SDS011;32073;49.166;8.076;2022-08-21T12:42:23;2.38;;;1.40;;
46365;SDS011;32073;49.166;8.076;2022-08-21T12:46:46;4.65;;;1.20;;
46365;SDS011;32073;49.166;8.076;2022-08-21T12:55:00;1.77;;;1.10;;
46365;SDS011;32073;49.166;8.076;2022-08-21T12:59:05;1.65;;;1.00;;
46365;SDS011;32073;49.166;8.076;2022-08-21T13:03:11;4.90;;;1.52;;
46365;SDS011;32073;49.166;8.076;2022-08-21T13:07:26;2.70;;;1.27;;
46365;SDS011;32073;49.166;8.076;2022-08-21T13:11:31;5.30;;;1.05;;
46365;SDS011;32073;49.166;8.076;2022-08-21T13:15:34;3.15;;;1.38;;
46365;SDS011;32073;49.166;8.076;2022-08-21T13:19:39;2.08;;;1.08;;
46365;SDS011;32073;49.166;8.076;2022-08-21T13:23:40;2.33;;;1.23;;
46365;SDS011;32073;49.166;8.076;2022-08-21T13:27:41;1.70;;;1.20;;
46365;SDS011;32073;49.166;8.076;2022-08-21T13:31:58;3.63;;;1.55;;
46365;SDS011;32073;49.166;8.076;2022-08-21T13:36:07;2.78;;;1.17;;
46365;SDS011;32073;49.166;8.076;2022-08-21T13:40:24;2.05;;;1.15;;
46365;SDS011;32073;49.166;8.076;2022-08-21T13:44:39;2.15;;;1.35;;
46365;SDS011;32073;49.166;8.076;2022-08-21T13:48:43;1.70;;;1.20;;
46365;SDS011;32073;49.166;8.076;2022-08-21T13:53:06;5.43;;;1.58;;
46365;SDS011;32073;49.166;8.076;2022-08-21T13:57:17;2.45;;;1.17;;
46365;SDS011;32073;49.166;8.076;2022-08-21T14:05:29;6.65;;;1.48;;
46365;SDS011;32073;49.166;8.076;2022-08-21T14:09:40;2.55;;;1.60;;
46365;SDS011;32073;49.166;8.076;2022-08-21T14:13:48;2.28;;;1.30;;
46365;SDS011;32073;49.166;8.076;2022-08-21T14:18:06;1.25;;;0.93;;
46365;SDS011;32073;49.166;8.076;2022-08-21T14:27:11;2.60;;;1.35;;
46365;SDS011;32073;49.166;8.076;2022-08-21T14:31:14;3.90;;;1.52;;
46365;SDS011;32073;49.166;8.076;2022-08-21T14:35:20;3.72;;;1.40;;
46365;SDS011;32073;49.166;8.076;2022-08-21T14:39:21;1.95;;;1.10;;
46365;SDS011;32073;49.166;8.076;2022-08-21T14:43:22;3.20;;;1.30;;
46365;SDS011;32073;49.166;8.076;2022-08-21T14:47:25;2.88;;;1.45;;
46365;SDS011;32073;49.166;8.076;2022-08-21T14:51:26;4.28;;;1.30;;
46365;SDS011;32073;49.166;8.076;2022-08-21T14:55:27;1.88;;;1.00;;
46365;SDS011;32073;49.166;8.076;2022-08-21T14:59:28;2.03;;;1.30;;
46365;SDS011;32073;49.166;8.076;2022-08-21T15:03:30;3.35;;;1.30;;
46365;SDS011;32073;49.166;8.076;2022-08-21T15:07:31;1.77;;;1.10;;
46365;SDS011;32073;49.166;8.076;2022-08-21T15:11:32;1.52;;;0.90;;
46365;SDS011;32073;49.166;8.076;2022-08-21T15:15:34;1.45;;;1.17;;
46365;SDS011;32073;49.166;8.076;2022-08-21T15:19:42;2.13;;;1.10;;
46365;SDS011;32073;49.166;8.076;2022-08-21T15:23:43;2.72;;;1.20;;
46365;SDS011;32073;49.166;8.076;2022-08-21T15:27:44;1.58;;;1.08;;
46365;SDS011;32073;49.166;8.076;2022-08-21T15:31:52;1.50;;;1.00;;
46365;SDS011;32073;49.166;8.076;2022-08-21T15:36:02;2.42;;;1.10;;
46365;SDS011;32073;49.166;8.076;2022-08-21T15:40:03;2.97;;;1.00;;
46365;SDS011;32073;49.166;8.076;2022-08-21T15:44:08;3.28;;;1.40;;
46365;SDS011;32073;49.166;8.076;2022-08-21T15:48:11;1.35;;;1.10;;
46365;SDS011;32073;49.166;8.076;2022-08-21T15:52:16;2.38;;;1.17;;
46365;SDS011;32073;49.166;8.076;2022-08-21T15:56:26;3.13;;;1.60;;
46365;SDS011;32073;49.166;8.076;2022-08-21T16:00:35;2.35;;;1.20;;
46365;SDS011;32073;49.166;8.076;2022-08-21T16:04:36;2.58;;;1.00;;
46365;SDS011;32073;49.166;8.076;2022-08-21T16:08:36;2.22;;;1.10;;
46365;SDS011;32073;49.166;8.076;2022-08-21T16:12:39;1.60;;;1.00;;
46365;SDS011;32073;49.166;8.076;2022-08-21T16:16:47;1.00;;;0.90;;
46365;SDS011;32073;49.166;8.076;2022-08-21T16:20:48;3.03;;;1.33;;
46365;SDS011;32073;49.166;8.076;2022-08-21T16:24:49;1.80;;;0.95;;
46365;SDS011;32073;49.166;8.076;2022-08-21T16:28:50;2.42;;;1.30;;
46365;SDS011;32073;49.166;8.076;2022-08-21T16:32:56;1.67;;;0.93;;
46365;SDS011;32073;49.166;8.076;2022-08-21T16:36:59;1.83;;;1.10;;
46365;SDS011;32073;49.166;8.076;2022-08-21T16:41:00;1.60;;;1.25;;
46365;SDS011;32073;49.166;8.076;2022-08-21T16:45:01;2.63;;;1.50;;
46365;SDS011;32073;49.166;8.076;2022-08-21T16:49:05;1.52;;;1.00;;
46365;SDS011;32073;49.166;8.076;2022-08-21T16:53:06;2.13;;;1.20;;
46365;SDS011;32073;49.166;8.076;2022-08-21T16:57:07;1.02;;;0.80;;
46365;SDS011;32073;49.166;8.076;2022-08-21T17:01:09;1.25;;;0.70;;
46365;SDS011;32073;49.166;8.076;2022-08-21T17:05:14;2.97;;;1.20;;
46365;SDS011;32073;49.166;8.076;2022-08-21T17:09:15;2.17;;;1.10;;
46365;SDS011;32073;49.166;8.076;2022-08-21T17:13:16;1.50;;;0.90;;
46365;SDS011;32073;49.166;8.076;2022-08-21T17:17:17;2.15;;;1.05;;
46365;SDS011;32073;49.166;8.076;2022-08-21T17:21:18;2.38;;;0.93;;
46365;SDS011;32073;49.166;8.076;2022-08-21T17:25:19;1.42;;;0.80;;
46365;SDS011;32073;49.166;8.076;2022-08-21T17:29:23;1.58;;;1.00;;
46365;SDS011;32073;49.166;8.076;2022-08-21T17:33:29;1.52;;;0.90;;
46365;SDS011;32073;49.166;8.076;2022-08-21T17:37:36;1.92;;;1.10;;
46365;SDS011;32073;49.166;8.076;2022-08-21T17:41:38;2.30;;;1.00;;
46365;SDS011;32073;49.166;8.076;2022-08-21T17:45:40;2.72;;;1.10;;
46365;SDS011;32073;49.166;8.076;2022-08-21T17:49:43;2.35;;;1.33;;
46365;SDS011;32073;49.166;8.076;2022-08-21T17:53:44;1.73;;;0.95;;
46365;SDS011;32073;49.166;8.076;2022-08-21T17:57:45;1.65;;;1.13;;
46365;SDS011;32073;49.166;8.076;2022-08-21T18:01:48;3.72;;;1.30;;
46365;SDS011;32073;49.166;8.076;2022-08-21T18:05:49;1.33;;;0.90;;
46365;SDS011;32073;49.166;8.076;2022-08-21T18:09:52;1.00;;;0.82;;
46365;SDS011;32073;49.166;8.076;2022-08-21T18:13:54;2.08;;;1.10;;
46365;SDS011;32073;49.166;8.076;2022-08-21T18:17:59;2.25;;;1.20;;
46365;SDS011;32073;49.166;8.076;2022-08-21T18:22:02;1.80;;;1.30;;
46365;SDS011;32073;49.166;8.076;2022-08-21T18:26:07;2.53;;;1.60;;
46365;SDS011;32073;49.166;8.076;2022-08-21T18:30:08;2.17;;;1.10;;
46365;SDS011;32073;49.166;8.076;2022-08-21T18:34:28;1.55;;;1.10;;
46365;SDS011;32073;49.166;8.076;2022-08-21T18:38:33;3.35;;;1.23;;
46365;SDS011;32073;49.166;8.076;2022-08-21T18:42:37;1.83;;;1.23;;
46365;SDS011;32073;49.166;8.076;2022-08-21T18:46:53;2.40;;;1.35;;
46365;SDS011;32073;49.166;8.076;2022-08-21T18:51:00;2.13;;;1.30;;
46365;SDS011;32073;49.166;8.076;2022-08-21T18:55:01;4.10;;;1.13;;
46365;SDS011;32073;49.166;8.076;2022-08-21T18:59:02;2.00;;;1.00;;
46365;SDS011;32073;49.166;8.076;2022-08-21T19:03:04;4.10;;;1.80;;
46365;SDS011;32073;49.166;8.076;2022-08-21T19:07:05;2.78;;;1.38;;
46365;SDS011;32073;49.166;8.076;2022-08-21T19:11:06;4.53;;;1.40;;
46365;SDS011;32073;49.166;8.076;2022-08-21T19:15:08;2.55;;;1.40;;
46365;SDS011;32073;49.166;8.076;2022-08-21T19:19:13;4.20;;;2.08;;
46365;SDS011;32073;49.166;8.076;2022-08-21T19:23:17;24.95;;;9.07;;
46365;SDS011;32073;49.166;8.076;2022-08-21T19:27:18;15.10;;;6.18;;
46365;SDS011;32073;49.166;8.076;2022-08-21T19:31:26;11.55;;;4.55;;
46365;SDS011;32073;49.166;8.076;2022-08-21T19:35:29;13.38;;;3.47;;
46365;SDS011;32073;49.166;8.076;2022-08-21T19:39:30;12.25;;;3.10;;
46365;SDS011;32073;49.166;8.076;2022-08-21T19:43:38;5.15;;;2.60;;
46365;SDS011;32073;49.166;8.076;2022-08-21T19:47:48;3.47;;;1.60;;
46365;SDS011;32073;49.166;8.076;2022-08-21T19:51:50;1.75;;;1.38;;
46365;SDS011;32073;49.166;8.076;2022-08-21T19:55:51;4.22;;;1.65;;
46365;SDS011;32073;49.166;8.076;2022-08-21T19:59:52;3.15;;;1.65;;
46365;SDS011;32073;49.166;8.076;2022-08-21T20:03:53;2.67;;;1.65;;
46365;SDS011;32073;49.166;8.076;2022-08-21T20:07:54;2.35;;;1.33;;
46365;SDS011;32073;49.166;8.076;2022-08-21T20:11:56;3.10;;;1.33;;
46365;SDS011;32073;49.166;8.076;2022-08-21T20:16:06;3.03;;;1.38;;
46365;SDS011;32073;49.166;8.076;2022-08-21T20:20:09;1.98;;;1.48;;
46365;SDS011;32073;49.166;8.076;2022-08-21T20:24:11;2.65;;;1.40;;
46365;SDS011;32073;49.166;8.076;2022-08-21T20:28:12;1.75;;;1.05;;
46365;SDS011;32073;49.166;8.076;2022-08-21T20:32:13;1.88;;;1.00;;
46365;SDS011;32073;49.166;8.076;2022-08-21T20:36:16;1.67;;;1.27;;
46365;SDS011;32073;49.166;8.076;2022-08-21T20:40:18;1.30;;;1.02;;
46365;SDS011;32073;49.166;8.076;2022-08-21T20:44:19;3.30;;;1.23;;
46365;SDS011;32073;49.166;8.076;2022-08-21T20:48:24;3.30;;;1.60;;
46365;SDS011;32073;49.166;8.076;2022-08-21T20:52:27;2.17;;;1.45;;
46365;SDS011;32073;49.166;8.076;2022-08-21T20:56:34;2.58;;;1.50;;
46365;SDS011;32073;49.166;8.076;2022-08-21T21:00:58;1.80;;;1.05;;
46365;SDS011;32073;49.166;8.076;2022-08-21T21:05:15;3.70;;;0.93;;
46365;SDS011;32073;49.166;8.076;2022-08-21T21:09:49;2.22;;;1.25;;
46365;SDS011;32073;49.166;8.076;2022-08-21T21:13:55;2.88;;;1.52;;
46365;SDS011;32073;49.166;8.076;2022-08-21T21:18:09;2.97;;;1.30;;
46365;SDS011;32073;49.166;8.076;2022-08-21T21:22:33;3.20;;;1.27;;
46365;SDS011;32073;49.166;8.076;2022-08-21T21:26:46;3.08;;;1.45;;
46365;SDS011;32073;49.166;8.076;2022-08-21T21:30:54;3.00;;;1.35;;
46365;SDS011;32073;49.166;8.076;2022-08-21T21:34:54;2.88;;;1.33;;
46365;SDS011;32073;49.166;8.076;2022-08-21T21:39:09;2.55;;;1.20;;
46365;SDS011;32073;49.166;8.076;2022-08-21T21:52:30;3.40;;;1.38;;
46365;SDS011;32073;49.166;8.076;2022-08-21T21:56:58;2.88;;;1.50;;
46365;SDS011;32073;49.166;8.076;2022-08-21T22:05:58;2.50;;;1.42;;
46365;SDS011;32073;49.166;8.076;2022-08-21T22:10:05;2.60;;;1.33;;
46365;SDS011;32073;49.166;8.076;2022-08-21T22:14:17;3.63;;;1.40;;
46365;SDS011;32073;49.166;8.076;2022-08-21T22:18:20;2.65;;;1.60;;
46365;SDS011;32073;49.166;8.076;2022-08-21T22:22:26;2.53;;;1.38;;
46365;SDS011;32073;49.166;8.076;2022-08-21T22:26:33;2.63;;;1.45;;
46365;SDS011;32073;49.166;8.076;2022-08-21T22:30:43;2.13;;;1.30;;
46365;SDS011;32073;49.166;8.076;2022-08-21T22:39:25;3.75;;;1.63;;
46365;SDS011;32073;49.166;8.076;2022-08-21T22:43:33;2.38;;;1.42;;
46365;SDS011;32073;49.166;8.076;2022-08-21T22:51:41;3.70;;;1.50;;
46365;SDS011;32073;49.166;8.076;2022-08-21T22:55:52;3.70;;;1.40;;
46365;SDS011;32073;49.166;8.076;2022-08-21T23:00:16;3.00;;;1.27;;
46365;SDS011;32073;49.166;8.076;2022-08-21T23:04:56;4.10;;;1.80;;
46365;SDS011;32073;49.166;8.076;2022-08-21T23:09:01;3.03;;;1.48;;
46365;SDS011;32073;49.166;8.076;2022-08-21T23:13:10;3.85;;;1.52;;
46365;SDS011;32073;49.166;8.076;2022-08-21T23:17:15;1.98;;;1.48;;
46365;SDS011;32073;49.166;8.076;2022-08-21T23:21:46;1.77;;;0.93;;
46365;SDS011;32073;49.166;8.076;2022-08-21T23:26:18;2.15;;;1.20;;
46365;SDS011;32073;49.166;8.076;2022-08-21T23:30:46;3.28;;;1.60;;
46365;SDS011;32073;49.166;8.076;2022-08-21T23:35:09;2.53;;;1.27;;
46365;SDS011;32073;49.166;8.076;2022-08-21T23:39:48;2.03;;;1.27;;
46365;SDS011;32073;49.166;8.076;2022-08-21T23:49:32;3.10;;;1.13;;
46365;SDS011;32073;49.166;8.076;2022-08-21T23:54:01;1.70;;;1.30;;
46365;SDS011;32073;49.166;8.076;2022-08-21T23:58:35;2.53;;;1.47;;
